Time;durP1;ratioP1;P1;durP2;ratioP2;P2;SDS_P1;SDS_P2;PMS_P1;PMS_P2;Temp;Humidity;BMP_temperature;BMP_pressure;BME280_temperature;BME280_humidity;BME280_pressure;Samples;Min_cycle;Max_cycle;Signal;HPM_P1;HPM_P2
2022/05/14 00:00:18;;;;;;;2.80;2.10;;;;;;;13.04;83.91;101276.59;5015492;28;20448;-72
2022/05/14 00:02:47;;;;;;;5.47;2.30;;;;;;;13.02;83.36;101278.81;5015375;28;20446;-72
2022/05/14 00:05:13;;;;;;;2.53;1.97;;;;;;;12.97;83.66;101273.47;5015201;28;20483;-72
2022/05/14 00:07:40;;;;;;;2.00;1.80;;;;;;;12.93;83.65;101276.00;5014978;28;20444;-72
2022/05/14 00:10:08;;;;;;;3.47;1.80;;;;;;;12.92;83.86;101279.78;5014725;28;20444;-72
2022/05/14 00:15:19;;;;;;;4.07;1.97;;;;;;;12.91;82.92;101280.09;5014890;28;20459;-71
2022/05/14 00:17:47;;;;;;;3.87;2.73;;;;;;;12.88;81.78;101276.06;5015138;28;20441;-72
2022/05/14 00:20:14;;;;;;;3.60;2.07;;;;;;;12.89;80.23;101280.41;5015025;28;20456;-71
2022/05/14 00:22:41;;;;;;;3.83;2.23;;;;;;;12.83;80.34;101273.44;5015039;28;20470;-70
2022/05/14 00:25:08;;;;;;;4.07;2.83;;;;;;;12.76;80.49;101271.13;5014836;28;20494;-70
2022/05/14 00:27:41;;;;;;;2.70;2.23;;;;;;;12.73;81.01;101268.19;5014917;28;20455;-70
2022/05/14 00:30:09;;;;;;;2.00;1.80;;;;;;;12.65;83.55;101271.59;5014622;28;20907;-69
2022/05/14 00:32:37;;;;;;;2.20;2.00;;;;;;;12.71;83.72;101271.22;5014834;28;20861;-69
2022/05/14 00:35:07;;;;;;;3.53;2.23;;;;;;;12.70;83.71;101266.84;5014781;28;20539;-69
2022/05/14 00:37:34;;;;;;;3.87;2.47;;;;;;;12.75;84.26;101263.25;5014374;28;20444;-69
2022/05/14 00:40:01;;;;;;;5.60;2.03;;;;;;;12.77;84.03;101270.00;5014700;28;20542;-69
2022/05/14 00:42:28;;;;;;;3.43;2.33;;;;;;;12.73;84.76;101269.00;5014707;28;20440;-69
2022/05/14 00:44:54;;;;;;;4.70;2.57;;;;;;;12.75;84.29;101269.50;5014451;28;20471;-69
2022/05/14 00:47:21;;;;;;;3.00;2.53;;;;;;;12.77;84.40;101267.28;5014509;28;20468;-69
2022/05/14 00:49:48;;;;;;;4.37;3.00;;;;;;;12.74;84.71;101281.47;5014239;28;20976;-69
2022/05/14 00:52:19;;;;;;;2.20;2.00;;;;;;;12.78;84.41;101274.34;5014180;28;20964;-69
2022/05/14 00:54:51;;;;;;;12.73;2.87;;;;;;;12.84;84.88;101269.63;5014450;28;20482;-69
2022/05/14 00:57:21;;;;;;;2.73;2.10;;;;;;;12.94;84.99;101274.06;5014382;28;20471;-69
2022/05/14 00:59:48;;;;;;;3.80;2.40;;;;;;;12.95;85.17;101267.53;5014412;28;20432;-70
2022/05/14 01:02:14;;;;;;;3.50;2.60;;;;;;;12.97;83.18;101273.47;5014333;28;20440;-70
2022/05/14 01:04:43;;;;;;;2.63;2.10;;;;;;;12.97;82.25;101278.91;5014268;28;20444;-70
2022/05/14 01:07:13;;;;;;;2.90;2.30;;;;;;;12.98;82.49;101277.81;5014112;28;20484;-70
2022/05/14 01:09:44;;;;;;;3.07;2.63;;;;;;;13.02;82.18;101278.81;5013887;28;20467;-70
2022/05/14 01:12:11;;;;;;;2.60;2.20;;;;;;;13.08;82.87;101285.78;5014237;28;20425;-70
2022/05/14 01:14:38;;;;;;;4.40;2.77;;;;;;;13.15;83.40;101286.19;5014025;28;20447;-69
2022/05/14 01:17:05;;;;;;;4.10;2.50;;;;;;;13.20;82.36;101290.72;5013714;28;20499;-69
2022/05/14 01:19:31;;;;;;;3.30;2.20;;;;;;;13.22;81.80;101275.75;5013843;28;20443;-69
2022/05/14 01:22:11;;;;;;;2.90;2.60;;;;;;;13.24;82.17;101283.63;5013982;28;20448;-69
2022/05/14 01:27:37;;;;;;;3.03;2.40;;;;;;;13.30;80.60;101269.59;5013666;28;20412;-69
2022/05/14 01:30:05;;;;;;;5.17;2.40;;;;;;;13.32;81.06;101264.66;5013802;28;20443;-68
2022/05/14 01:32:31;;;;;;;3.47;2.53;;;;;;;13.32;80.61;101275.53;5013774;28;20498;-68
2022/05/14 01:34:58;;;;;;;3.50;2.67;;;;;;;13.28;82.04;101274.53;5013776;28;20846;-69
2022/05/14 01:37:24;;;;;;;3.60;2.77;;;;;;;13.37;81.50;101283.63;5013681;28;20599;-68
2022/05/14 01:39:51;;;;;;;4.83;3.27;;;;;;;13.38;81.31;101276.25;5013742;28;20448;-68
2022/05/14 01:42:18;;;;;;;5.03;2.60;;;;;;;13.41;80.90;101277.53;5013678;28;20464;-69
2022/05/14 01:44:46;;;;;;;9.73;2.60;;;;;;;13.44;80.24;101280.47;5013558;28;20455;-69
2022/05/14 01:47:12;;;;;;;4.33;2.70;;;;;;;13.53;79.71;101283.28;5013383;28;20561;-69
2022/05/14 01:49:39;;;;;;;2.90;2.10;;;;;;;13.52;79.82;101293.38;5013635;28;20451;-69
2022/05/14 01:52:06;;;;;;;4.40;2.43;;;;;;;13.52;79.68;101289.84;5013682;28;20428;-69
2022/05/14 01:54:32;;;;;;;7.03;2.43;;;;;;;13.53;80.04;101291.47;5013589;28;20502;-69
2022/05/14 01:56:59;;;;;;;3.07;2.50;;;;;;;13.56;79.95;101280.78;5013455;28;20464;-68
2022/05/14 01:59:25;;;;;;;3.10;2.40;;;;;;;13.60;79.62;101286.44;5013547;28;20440;-69
2022/05/14 02:01:54;;;;;;;2.97;2.20;;;;;;;13.61;79.53;101285.31;5013480;28;20448;-71
2022/05/14 02:04:20;;;;;;;4.70;3.20;;;;;;;13.61;79.57;101280.66;5013480;28;20452;-70
2022/05/14 02:06:47;;;;;;;2.60;2.27;;;;;;;13.59;79.78;101282.91;5013299;28;20488;-70
2022/05/14 02:09:15;;;;;;;2.60;2.37;;;;;;;13.62;79.59;101278.75;5013394;28;20447;-70
2022/05/14 02:11:43;;;;;;;3.20;2.20;;;;;;;13.65;80.01;101288.22;5013374;28;20448;-70
2022/05/14 02:14:10;;;;;;;3.47;2.70;;;;;;;13.66;79.44;101292.56;5013048;28;20973;-71
2022/05/14 02:16:37;;;;;;;2.60;1.97;;;;;;;13.63;79.88;101274.91;5012942;28;20479;-70
2022/05/14 02:19:05;;;;;;;2.27;1.77;;;;;;;13.65;79.86;101286.31;5013359;28;20451;-70
2022/05/14 02:21:32;;;;;;;6.60;2.87;;;;;;;13.67;79.23;101281.34;5013319;28;20526;-70
2022/05/14 02:23:59;;;;;;;8.53;2.87;;;;;;;13.64;79.84;101290.16;5013198;28;20495;-70
2022/05/14 02:26:27;;;;;;;3.30;2.57;;;;;;;13.71;79.66;101281.56;5013092;28;20499;-70
2022/05/14 02:28:53;;;;;;;3.37;2.20;;;;;;;13.72;80.07;101283.97;5013271;28;20448;-70
2022/05/14 02:31:21;;;;;;;3.13;2.80;;;;;;;13.72;80.35;101283.16;5013489;28;20793;-71
2022/05/14 02:33:48;;;;;;;3.93;2.40;;;;;;;13.68;79.86;101293.88;5017052;28;20448;-71
2022/05/14 02:36:16;;;;;;;3.60;2.40;;;;;;;13.73;80.34;101291.06;5016953;28;20459;-71
2022/05/14 02:38:43;;;;;;;1.97;1.77;;;;;;;13.74;80.35;101289.13;5016957;28;20452;-71
2022/05/14 02:41:09;;;;;;;2.70;2.07;;;;;;;13.76;79.65;101287.69;5016631;28;20938;-72
2022/05/14 02:43:36;;;;;;;5.07;2.77;;;;;;;13.77;78.74;101292.06;5017036;28;20439;-71
2022/05/14 02:46:03;;;;;;;3.20;2.33;;;;;;;13.75;78.62;101299.69;5016392;28;21003;-72
2022/05/14 02:48:31;;;;;;;1.80;1.67;;;;;;;13.71;78.43;101293.25;5016528;28;20960;-72
2022/05/14 02:50:58;;;;;;;2.80;2.30;;;;;;;13.72;78.24;101294.84;5016745;28;20436;-71
2022/05/14 02:53:26;;;;;;;6.23;2.60;;;;;;;13.67;78.50;101291.44;5016710;28;20451;-71
2022/05/14 02:55:53;;;;;;;4.50;3.00;;;;;;;13.59;79.18;101295.69;5016333;28;20973;-72
2022/05/14 03:01:00;;;;;;;5.00;2.57;;;;;;;13.51;80.51;101304.59;5016052;28;20869;-72
2022/05/14 03:03:27;;;;;;;3.03;2.10;;;;;;;13.46;80.86;101300.03;5016490;28;20514;-73
2022/05/14 03:05:53;;;;;;;2.27;2.00;;;;;;;13.43;81.11;101297.13;5016393;28;20575;-73
2022/05/14 03:08:20;;;;;;;2.90;2.30;;;;;;;13.35;82.09;101295.91;5017904;28;20869;-72
2022/05/14 03:10:47;;;;;;;2.40;1.80;;;;;;;13.29;82.83;101297.91;5016069;28;20934;-72
2022/05/14 03:13:14;;;;;;;3.27;2.50;;;;;;;13.23;83.25;101303.75;5016080;28;20799;-73
2022/05/14 03:15:40;;;;;;;5.20;2.60;;;;;;;13.12;83.92;101289.50;5015640;28;21043;-75
2022/05/14 03:18:07;;;;;;;2.87;2.13;;;;;;;13.02;84.76;101289.72;5016245;28;20447;-69
2022/05/14 03:20:33;;;;;;;4.03;2.20;;;;;;;12.97;84.85;101290.59;5016276;28;20447;-72
2022/05/14 03:23:00;;;;;;;4.43;2.50;;;;;;;12.94;84.95;101287.69;5016145;28;20448;-71
2022/05/14 03:25:27;;;;;;;3.63;2.50;;;;;;;12.92;85.30;101287.16;5016110;28;20838;-71
2022/05/14 03:27:54;;;;;;;4.13;2.23;;;;;;;12.83;85.75;101293.28;5016033;28;20488;-71
2022/05/14 03:30:21;;;;;;;17.77;2.73;;;;;;;12.80;85.67;101295.81;5016061;28;20447;-72
2022/05/14 03:32:47;;;;;;;4.50;2.53;;;;;;;12.79;85.87;101291.44;5015993;28;20464;-72
2022/05/14 03:35:14;;;;;;;5.17;2.23;;;;;;;12.75;86.16;101293.97;5015957;28;20475;-71
2022/05/14 03:37:40;;;;;;;4.83;2.20;;;;;;;12.71;86.34;101292.97;5015896;28;20860;-72
2022/05/14 03:40:09;;;;;;;4.77;2.67;;;;;;;12.68;86.77;101292.75;5015869;28;20439;-71
2022/05/14 03:42:36;;;;;;;4.03;3.00;;;;;;;12.62;87.05;101289.31;5015777;28;20451;-71
2022/05/14 03:45:05;;;;;;;2.93;2.40;;;;;;;12.61;87.34;101277.59;5015856;28;20480;-71
2022/05/14 03:47:31;;;;;;;2.33;1.90;;;;;;;12.57;86.79;101282.03;5015648;28;20486;-71
2022/05/14 03:49:58;;;;;;;2.90;2.50;;;;;;;12.50;85.88;101286.25;5015713;28;20471;-71
2022/05/14 03:52:25;;;;;;;3.70;2.40;;;;;;;12.42;85.40;101284.19;5015671;28;20514;-71
2022/05/14 03:54:51;;;;;;;7.00;2.73;;;;;;;12.40;85.14;101280.97;5015639;28;20444;-71
2022/05/14 03:57:17;;;;;;;2.60;2.00;;;;;;;12.35;85.04;101289.97;5015474;28;20460;-71
2022/05/14 03:59:45;;;;;;;5.57;1.70;;;;;;;12.35;84.61;101284.56;5015559;28;20824;-71
2022/05/14 04:02:13;;;;;;;4.17;2.77;;;;;;;12.37;85.46;101279.66;5015443;28;20439;-72
2022/05/14 04:04:39;;;;;;;2.90;1.90;;;;;;;12.35;85.81;101282.66;5015447;28;20440;-72
2022/05/14 04:07:06;;;;;;;6.37;2.73;;;;;;;12.34;86.38;101291.09;5015211;28;20495;-72
2022/05/14 04:09:32;;;;;;;6.47;2.00;;;;;;;12.38;86.96;101292.94;5015256;28;20456;-71
2022/05/14 04:11:59;;;;;;;6.00;3.37;;;;;;;12.42;87.46;101285.00;5015261;28;20941;-70
2022/05/14 04:14:25;;;;;;;3.37;2.50;;;;;;;12.45;88.19;101289.03;5014869;28;20938;-70
2022/05/14 04:16:52;;;;;;;3.13;2.57;;;;;;;12.42;88.59;101284.19;5014788;28;20472;-70
2022/05/14 04:19:20;;;;;;;6.80;2.80;;;;;;;12.46;88.70;101288.75;5015106;28;20494;-70
2022/05/14 04:21:47;;;;;;;8.00;2.23;;;;;;;12.52;87.65;101284.81;5015059;28;20890;-70
2022/05/14 04:24:14;;;;;;;8.20;2.43;;;;;;;12.58;88.29;101291.81;5015040;28;20447;-71
2022/05/14 04:26:41;;;;;;;2.40;2.17;;;;;;;12.63;88.29;101283.56;5014871;28;20492;-72
2022/05/14 04:29:08;;;;;;;2.77;2.13;;;;;;;12.70;88.06;101287.81;5014504;28;20799;-72
2022/05/14 04:31:35;;;;;;;3.67;2.90;;;;;;;12.73;87.21;101290.72;5014844;28;20451;-72
2022/05/14 04:34:01;;;;;;;5.13;2.53;;;;;;;12.75;87.00;101293.97;5014875;28;20494;-72
2022/05/14 04:36:29;;;;;;;28.80;3.20;;;;;;;12.80;87.18;101290.38;5014710;28;20455;-71
2022/05/14 04:38:56;;;;;;;3.90;2.73;;;;;;;12.84;86.13;101297.63;5014724;28;20486;-72
2022/05/14 04:41:23;;;;;;;5.03;2.37;;;;;;;12.93;84.77;101310.53;5014824;28;20463;-73
2022/05/14 04:43:50;;;;;;;4.07;2.40;;;;;;;12.95;84.70;101298.25;5014353;28;20984;-73
2022/05/14 04:46:16;;;;;;;3.50;2.53;;;;;;;12.97;84.35;101301.47;5014470;28;20495;-73
2022/05/14 04:48:43;;;;;;;3.60;1.83;;;;;;;12.98;84.06;101311.25;5014593;28;20448;-72
2022/05/14 04:51:09;;;;;;;3.13;2.40;;;;;;;13.02;83.74;101319.63;5014590;28;20440;-72
2022/05/14 04:53:37;;;;;;;3.33;2.50;;;;;;;13.09;82.89;101322.75;5014264;28;20448;-72
2022/05/14 04:56:04;;;;;;;3.10;2.00;;;;;;;13.10;82.62;101314.31;5013748;28;20973;-72
2022/05/14 04:58:30;;;;;;;3.17;2.10;;;;;;;13.11;83.31;101302.31;5014455;28;20454;-72
2022/05/14 05:00:57;;;;;;;2.37;1.90;;;;;;;13.18;82.79;101307.34;5014360;28;20543;-72
2022/05/14 05:03:23;;;;;;;3.30;2.13;;;;;;;13.24;82.68;101316.25;5014356;28;20440;-72
2022/05/14 05:05:53;;;;;;;5.40;2.53;;;;;;;13.27;82.34;101316.44;5014197;28;20476;-72
2022/05/14 05:08:22;;;;;;;3.27;2.60;;;;;;;13.33;81.45;101320.69;5014152;28;20484;-72
2022/05/14 05:10:50;;;;;;;10.73;2.40;;;;;;;13.38;81.58;101323.31;5014139;28;20498;-71
2022/05/14 05:13:19;;;;;;;3.20;2.13;;;;;;;13.43;81.59;101319.69;5013854;28;20475;-71
2022/05/14 05:15:46;;;;;;;4.00;2.70;;;;;;;13.51;81.38;101326.34;5013846;28;20468;-71
2022/05/14 05:18:13;;;;;;;12.63;2.17;;;;;;;13.58;79.92;101322.09;5014054;28;20445;-70
2022/05/14 05:20:43;;;;;;;2.20;1.97;;;;;;;13.65;79.99;101323.63;5014015;28;20452;-71
2022/05/14 05:23:12;;;;;;;2.40;1.60;;;;;;;13.71;80.08;101327.84;5013731;28;20942;-71
2022/05/14 05:25:38;;;;;;;3.57;2.50;;;;;;;13.76;79.51;101333.19;5013552;28;20468;-71
2022/05/14 05:28:06;;;;;;;4.60;3.00;;;;;;;13.84;79.04;101336.00;5013906;28;20488;-72
2022/05/14 05:30:33;;;;;;;8.83;2.50;;;;;;;13.93;78.06;101340.75;5013933;28;20440;-72
2022/05/14 05:32:59;;;;;;;7.37;2.47;;;;;;;14.01;77.56;101342.75;5013888;28;20829;-68
2022/05/14 05:35:26;;;;;;;3.27;1.83;;;;;;;14.10;76.68;101343.63;5013470;28;20885;-68
2022/05/14 05:37:52;;;;;;;2.77;1.77;;;;;;;14.18;75.64;101336.66;5013785;28;21065;-71
2022/05/14 05:40:19;;;;;;;5.77;1.70;;;;;;;14.18;76.05;101334.75;5013726;28;20447;-71
2022/05/14 05:42:46;;;;;;;4.53;1.60;;;;;;;14.26;77.09;101342.19;5013459;28;20821;-70
2022/05/14 05:45:16;;;;;;;2.50;1.63;;;;;;;14.39;75.64;101337.81;5013619;28;20436;-71
2022/05/14 05:47:43;;;;;;;2.00;1.30;;;;;;;14.53;75.77;101337.78;5013514;28;20476;-71
2022/05/14 05:50:10;;;;;;;2.30;1.67;;;;;;;14.65;74.99;101338.03;5013650;28;20498;-71
2022/05/14 05:52:36;;;;;;;4.00;1.80;;;;;;;14.83;74.05;101334.31;5013556;28;20478;-71
2022/05/14 05:57:47;;;;;;;3.77;1.67;;;;;;;15.16;71.32;101342.22;5013342;28;20952;-70
2022/05/14 06:00:19;;;;;;;10.00;2.40;;;;;;;15.13;70.95;101340.91;5013460;28;20444;-71
2022/05/14 06:02:46;;;;;;;11.67;3.67;;;;;;;15.07;72.52;101349.53;5013482;28;20961;-72
2022/05/14 06:05:12;;;;;;;4.43;2.53;;;;;;;15.06;72.54;101354.19;5013103;28;20941;-71
2022/05/14 06:07:39;;;;;;;4.53;1.87;;;;;;;15.10;71.91;101362.56;5015885;28;20557;-71
2022/05/14 06:10:08;;;;;;;2.50;1.63;;;;;;;15.16;71.99;101368.69;5017262;28;20950;-71
2022/05/14 06:12:38;;;;;;;1.93;1.37;;;;;;;15.13;72.31;101364.66;5017464;28;20455;-71
2022/05/14 06:15:06;;;;;;;2.03;1.60;;;;;;;15.19;71.63;101365.34;5017267;28;20550;-70
2022/05/14 06:17:33;;;;;;;2.73;1.63;;;;;;;15.24;72.08;101366.00;5017473;28;20427;-71
2022/05/14 06:20:00;;;;;;;3.00;1.60;;;;;;;15.29;71.69;101365.88;5017098;28;20965;-71
2022/05/14 06:22:26;;;;;;;2.37;1.80;;;;;;;15.41;71.56;101372.69;5017341;28;20455;-71
2022/05/14 06:24:53;;;;;;;4.33;1.60;;;;;;;15.57;71.16;101371.13;5017231;28;20451;-69
2022/05/14 06:27:20;;;;;;;1.83;1.27;;;;;;;15.68;70.09;101375.25;5017030;28;20968;-69
2022/05/14 06:29:46;;;;;;;3.27;2.07;;;;;;;15.65;69.93;101370.41;5016786;28;20941;-69
2022/05/14 06:32:13;;;;;;;3.03;1.87;;;;;;;15.68;70.04;101368.97;5017154;28;20792;-70
2022/05/14 06:34:40;;;;;;;2.17;1.83;;;;;;;15.73;71.19;101369.63;5017134;28;20448;-70
2022/05/14 06:37:07;;;;;;;5.63;1.93;;;;;;;15.84;69.47;101357.28;5016987;28;20510;-70
2022/05/14 06:39:33;;;;;;;4.20;2.00;;;;;;;15.92;69.63;101374.03;5016968;28;20451;-71
2022/05/14 06:42:00;;;;;;;2.40;1.80;;;;;;;16.00;70.51;101375.97;5016884;28;20444;-70
2022/05/14 06:44:26;;;;;;;4.00;1.90;;;;;;;16.07;69.88;101371.66;5016881;28;20439;-71
2022/05/14 06:46:53;;;;;;;4.30;2.20;;;;;;;16.12;69.29;101373.44;5016656;28;20587;-71
2022/05/14 06:49:19;;;;;;;3.03;1.90;;;;;;;16.21;70.35;101366.03;5016776;28;20804;-71
2022/05/14 06:51:47;;;;;;;2.23;1.93;;;;;;;16.27;69.88;101370.22;5016717;28;20451;-71
2022/05/14 06:54:14;;;;;;;6.27;2.40;;;;;;;16.19;69.33;101379.22;5016357;28;20821;-70
2022/05/14 06:56:44;;;;;;;3.10;1.10;;;;;;;16.31;68.73;101379.41;5016564;28;20832;-73
2022/05/14 06:59:14;;;;;;;2.03;1.43;;;;;;;16.42;69.30;101381.81;5017047;28;20427;-72
2022/05/14 07:01:42;;;;;;;6.00;1.40;;;;;;;16.54;68.56;101384.72;5016473;28;20444;-68
2022/05/14 07:06:57;;;;;;;5.33;1.67;;;;;;;16.61;68.37;101383.13;5016155;28;20443;-67
2022/05/14 07:09:27;;;;;;;3.10;1.60;;;;;;;16.71;69.69;101381.19;5023682;28;20788;-69
2022/05/14 07:11:56;;;;;;;5.17;1.50;;;;;;;16.81;70.63;101380.88;5025021;28;20519;-73
2022/05/14 07:14:23;;;;;;;1.77;1.13;;;;;;;16.80;69.10;101376.53;5025153;28;20431;-73
2022/05/14 07:16:51;;;;;;;7.90;2.33;;;;;;;16.77;69.25;101388.91;5024587;28;20464;-74
2022/05/14 07:19:18;;;;;;;2.33;1.50;;;;;;;16.82;67.62;101385.22;5024842;28;20884;-75
2022/05/14 07:21:46;;;;;;;3.10;1.60;;;;;;;16.82;68.22;101388.78;5026649;28;20435;-72
2022/05/14 07:24:18;;;;;;;3.73;1.60;;;;;;;16.92;68.68;101386.84;5031263;28;20451;-73
2022/05/14 07:26:46;;;;;;;4.70;2.00;;;;;;;16.93;67.28;101386.50;5035929;28;20470;-75
2022/05/14 07:29:18;;;;;;;3.77;1.67;;;;;;;16.99;67.67;101390.66;5035839;28;20447;-72
2022/05/14 07:31:45;;;;;;;3.47;1.37;;;;;;;16.97;66.99;101384.72;5035869;28;20435;-72
2022/05/14 07:34:12;;;;;;;2.23;1.77;;;;;;;16.94;68.51;101385.38;5035784;28;20445;-72
2022/05/14 07:36:41;;;;;;;2.90;1.33;;;;;;;16.93;67.35;101385.69;5035594;28;20475;-72
2022/05/14 07:39:08;;;;;;;9.03;1.73;;;;;;;16.97;68.90;101382.00;5035668;28;20447;-71
2022/05/14 07:41:41;;;;;;;10.13;2.40;;;;;;;17.04;68.08;101389.69;5033149;28;20435;-71
2022/05/14 07:44:10;;;;;;;4.87;1.70;;;;;;;17.03;68.08;101388.09;5015846;28;20436;-72
2022/05/14 07:46:38;;;;;;;3.70;2.07;;;;;;;17.11;67.95;101385.34;5015524;28;20464;-72
2022/05/14 07:49:10;;;;;;;2.87;1.60;;;;;;;17.23;68.74;101384.66;5015486;28;20488;-72
2022/05/14 07:51:37;;;;;;;5.03;2.70;;;;;;;17.26;66.02;101383.19;5015662;28;20469;-72
2022/05/14 07:54:03;;;;;;;2.97;2.27;;;;;;;17.26;66.91;101378.53;5015104;28;20966;-71
2022/05/14 07:56:30;;;;;;;2.17;1.30;;;;;;;17.35;69.10;101371.13;5015481;28;20467;-72
2022/05/14 07:58:58;;;;;;;3.90;2.10;;;;;;;17.48;66.82;101373.94;5015482;28;20440;-72
2022/05/14 08:01:24;;;;;;;2.90;2.20;;;;;;;17.68;67.10;101372.44;5015424;28;20456;-71
2022/05/14 08:03:51;;;;;;;4.87;2.20;;;;;;;17.90;67.58;101367.50;5015364;28;20490;-72
2022/05/14 08:06:18;;;;;;;4.47;1.93;;;;;;;17.95;65.20;101373.94;5015312;28;20510;-72
2022/05/14 08:08:45;;;;;;;2.93;1.87;;;;;;;17.97;66.67;101374.38;5015240;28;20479;-73
2022/05/14 08:11:12;;;;;;;9.20;2.40;;;;;;;18.04;64.92;101375.47;5015081;28;20912;-71
2022/05/14 08:13:38;;;;;;;5.43;1.97;;;;;;;18.03;64.08;101381.28;5015201;28;20440;-72
2022/05/14 08:16:07;;;;;;;2.77;1.53;;;;;;;18.10;64.09;101387.03;5015234;28;20475;-72
2022/05/14 08:18:34;;;;;;;4.50;2.00;;;;;;;18.13;64.26;101386.38;5015115;28;20440;-73
2022/05/14 08:24:29;;;;;;;8.47;1.77;;;;;;;18.15;61.12;101384.13;5032934;28;20509;-72
2022/05/14 08:26:30;;;;;;;11.07;1.77;;;;;;;18.08;63.43;101375.63;5013568;28;20478;-72
2022/05/14 08:28:56;;;;;;;8.50;2.60;;;;;;;18.28;62.45;101379.50;5034042;28;20483;-71
2022/05/14 08:31:24;;;;;;;10.93;1.93;;;;;;;18.29;62.63;101381.94;5034424;28;20447;-72
2022/05/14 08:33:50;;;;;;;4.77;2.00;;;;;;;18.47;62.75;101379.06;5033198;28;20450;-72
2022/05/14 08:36:17;;;;;;;3.60;2.00;;;;;;;18.51;60.96;101391.78;5023522;28;20824;-72
2022/05/14 08:38:43;;;;;;;6.80;1.80;;;;;;;18.48;60.82;101377.91;5015205;28;20436;-70
2022/05/14 08:41:10;;;;;;;2.03;1.27;;;;;;;18.58;60.55;101370.06;5014798;28;20452;-70
2022/05/14 08:43:43;;;;;;;4.80;2.00;;;;;;;18.57;60.72;101376.69;5015059;28;20448;-71
2022/05/14 08:46:12;;;;;;;10.30;1.70;;;;;;;18.50;60.50;101373.69;5017826;28;20968;-70
2022/05/14 08:48:40;;;;;;;5.37;1.70;;;;;;;18.53;60.65;101375.75;5034526;28;20482;-70
2022/05/14 08:51:13;;;;;;;4.47;1.87;;;;;;;18.62;60.07;101364.72;5034817;28;20493;-71
2022/05/14 08:53:41;;;;;;;2.43;1.70;;;;;;;18.72;59.29;101369.81;5035008;28;20419;-71
2022/05/14 08:56:26;;;;;;;5.23;1.80;;;;;;;18.47;59.39;101376.31;5034778;28;20471;-70
2022/05/14 08:59:07;;;;;;;3.80;1.60;;;;;;;18.51;59.81;101366.28;5034654;28;20455;-70
2022/05/14 09:01:37;;;;;;;2.40;1.63;;;;;;;18.64;59.98;101371.47;5034520;28;20522;-71
2022/05/14 09:04:07;;;;;;;7.67;2.23;;;;;;;18.70;59.45;101357.59;5034626;28;20435;-70
2022/05/14 09:06:33;;;;;;;3.83;2.20;;;;;;;18.47;58.23;101365.34;5034345;28;20554;-70
2022/05/14 09:08:59;;;;;;;4.00;1.73;;;;;;;18.39;58.47;101369.75;5034249;28;20505;-71
2022/05/14 09:11:28;;;;;;;2.00;1.43;;;;;;;18.50;59.70;101372.88;5034646;28;20446;-70
2022/05/14 09:13:56;;;;;;;2.83;1.70;;;;;;;18.48;58.41;101369.69;5034348;28;20439;-71
2022/05/14 09:16:28;;;;;;;7.33;2.00;;;;;;;18.55;60.02;101372.69;5034397;28;20928;-70
2022/05/14 09:18:56;;;;;;;3.67;2.00;;;;;;;18.63;55.91;101374.53;5034362;28;20415;-71
2022/05/14 09:21:26;;;;;;;7.67;2.10;;;;;;;18.67;55.21;101368.03;5034055;28;20866;-70
2022/05/14 09:23:56;;;;;;;5.53;2.30;;;;;;;18.67;56.34;101372.75;5034282;28;20493;-70
2022/05/14 09:26:28;;;;;;;4.33;1.67;;;;;;;18.64;56.73;101365.19;5033683;28;20899;-70
2022/05/14 09:28:56;;;;;;;5.70;2.20;;;;;;;18.62;55.38;101362.78;5033858;28;20483;-70
2022/05/14 09:31:25;;;;;;;9.70;1.83;;;;;;;18.67;55.40;101368.03;5033785;28;20443;-70
2022/05/14 09:34:01;;;;;;;7.00;2.10;;;;;;;18.73;56.38;101374.19;5033737;28;20443;-71
2022/05/14 09:36:30;;;;;;;2.40;1.47;;;;;;;18.77;54.31;101371.53;5033389;28;20465;-71
2022/05/14 09:39:02;;;;;;;3.90;1.70;;;;;;;18.82;57.33;101366.66;5033690;28;20443;-70
2022/05/14 09:41:28;;;;;;;7.37;2.13;;;;;;;18.94;53.27;101382.38;5033641;28;20455;-71
2022/05/14 09:43:56;;;;;;;2.10;1.83;;;;;;;18.95;53.10;101383.16;5033723;28;20446;-71
2022/05/14 09:46:27;;;;;;;3.47;1.67;;;;;;;18.77;53.49;101372.38;5033697;28;20549;-71
2022/05/14 09:49:03;;;;;;;2.67;1.60;;;;;;;18.66;54.39;101376.63;5033465;28;20490;-71
2022/05/14 09:51:35;;;;;;;9.33;2.30;;;;;;;18.53;50.74;101374.97;5033720;28;20506;-70
2022/05/14 09:54:13;;;;;;;2.60;1.40;;;;;;;18.70;51.67;101368.56;5033287;28;20436;-69
2022/05/14 09:57:07;;;;;;;2.10;1.70;;;;;;;18.90;52.09;101365.78;5033216;28;20463;-70
2022/05/14 10:00:01;;;;;;;2.37;1.50;;;;;;;19.06;51.71;101376.91;5033298;28;20427;-70
2022/05/14 10:02:45;;;;;;;2.30;1.40;;;;;;;19.22;51.92;101363.34;5033246;28;20481;-71
2022/05/14 10:05:17;;;;;;;5.53;2.00;;;;;;;19.36;50.96;101369.31;5033159;28;20435;-71
2022/05/14 10:07:51;;;;;;;4.00;1.50;;;;;;;19.51;50.46;101362.34;5032762;28;21008;-71
2022/05/14 10:10:31;;;;;;;1.77;1.10;;;;;;;19.56;49.22;101372.31;5033182;28;20839;-71
2022/05/14 10:13:04;;;;;;;4.67;2.00;;;;;;;19.86;49.74;101375.66;5032802;28;20485;-70
2022/05/14 10:15:40;;;;;;;1.20;1.10;;;;;;;20.09;47.29;101374.03;5032898;28;20479;-71
2022/05/14 10:18:24;;;;;;;2.77;1.60;;;;;;;20.10;47.85;101375.66;5033119;28;20435;-72
2022/05/14 10:20:58;;;;;;;3.97;2.00;;;;;;;20.17;46.95;101372.31;5032701;28;20936;-71
2022/05/14 10:26:49;;;;;;;10.33;2.17;;;;;;;19.91;47.13;101384.47;5032801;28;20437;-71
2022/05/14 10:29:37;;;;;;;9.93;2.07;;;;;;;19.74;48.96;101378.41;5032583;28;20861;-71
2022/05/14 10:32:06;;;;;;;2.80;1.37;;;;;;;19.64;48.71;101374.19;5033003;28;20443;-71
2022/05/14 10:34:41;;;;;;;2.10;1.40;;;;;;;19.57;49.62;101373.94;5032922;28;20828;-71
2022/05/14 10:37:15;;;;;;;5.77;1.53;;;;;;;19.87;49.97;101378.06;5032741;28;20466;-71
2022/05/14 10:39:52;;;;;;;3.23;1.53;;;;;;;20.09;49.89;101384.22;5032848;28;20427;-70
2022/05/14 10:42:26;;;;;;;3.00;1.90;;;;;;;20.41;46.80;101366.75;5032938;28;20415;-71
2022/05/14 10:44:57;;;;;;;2.77;1.57;;;;;;;20.65;46.79;101374.16;5032809;28;20430;-70
2022/05/14 10:47:26;;;;;;;2.47;1.57;;;;;;;20.72;46.72;101367.22;5032711;28;20531;-71
2022/05/14 10:49:58;;;;;;;2.80;1.53;;;;;;;20.77;46.69;101376.06;5032885;28;20541;-71
2022/05/14 10:52:25;;;;;;;5.80;1.57;;;;;;;20.90;46.23;101374.84;5033160;28;20434;-71
2022/05/14 10:54:53;;;;;;;3.93;1.60;;;;;;;20.83;45.79;101369.13;5036482;28;20505;-69
2022/05/14 10:57:31;;;;;;;4.80;1.87;;;;;;;20.95;45.81;101360.03;5036474;28;20464;-71
2022/05/14 11:00:04;;;;;;;5.43;1.93;;;;;;;20.96;46.65;101350.59;5036421;28;20418;-71
2022/05/14 11:02:34;;;;;;;7.23;2.70;;;;;;;20.97;47.13;101362.41;5036665;28;20434;-71
2022/05/14 11:05:02;;;;;;;2.90;1.70;;;;;;;21.31;46.74;101367.28;5036755;28;20724;-72
2022/05/14 11:07:31;;;;;;;3.40;2.10;;;;;;;21.54;45.12;101359.19;5036285;28;20470;-71
2022/05/14 11:10:16;;;;;;;5.00;1.87;;;;;;;21.75;45.10;101358.91;5035740;28;20490;-71
2022/05/14 11:12:44;;;;;;;4.20;2.10;;;;;;;21.82;44.95;101358.25;5036568;28;20428;-71
2022/05/14 11:15:21;;;;;;;4.30;2.00;;;;;;;22.13;44.68;101357.41;5035910;28;20431;-71
2022/05/14 11:17:48;;;;;;;3.03;1.30;;;;;;;22.27;45.42;101363.28;5035863;28;20916;-71
2022/05/14 11:20:17;;;;;;;5.43;1.80;;;;;;;22.82;43.38;101363.19;5035714;28;20928;-71
2022/05/14 11:22:47;;;;;;;4.50;1.40;;;;;;;22.90;42.53;101365.75;5036079;28;20470;-71
2022/05/14 11:25:23;;;;;;;5.93;2.00;;;;;;;23.45;42.68;101371.06;5035858;28;20501;-71
2022/05/14 11:27:57;;;;;;;3.07;1.50;;;;;;;23.72;40.96;101360.03;5035881;28;20427;-70
2022/05/14 11:30:32;;;;;;;1.83;1.00;;;;;;;24.24;40.75;101362.00;5035790;28;20510;-71
2022/05/14 11:32:59;;;;;;;3.47;1.77;;;;;;;24.43;38.44;101374.91;5035807;28;20432;-71
2022/05/14 11:35:37;;;;;;;9.10;1.67;;;;;;;23.92;40.79;101373.41;5035730;28;20451;-71
2022/05/14 11:38:14;;;;;;;6.00;1.43;;;;;;;23.56;41.08;101368.47;5035755;28;20431;-71
2022/05/14 11:40:42;;;;;;;6.07;1.90;;;;;;;23.15;42.21;101377.28;5035412;28;20438;-71
2022/05/14 11:43:23;;;;;;;2.40;1.17;;;;;;;22.74;41.77;101358.69;5035578;28;20875;-71
2022/05/14 11:45:56;;;;;;;7.27;2.47;;;;;;;22.67;42.68;101373.97;5035587;28;20497;-71
2022/05/14 11:48:28;;;;;;;9.00;1.53;;;;;;;22.87;43.23;101371.97;5035467;28;20428;-71
2022/05/14 11:51:03;;;;;;;4.57;1.40;;;;;;;23.33;42.49;101382.28;5035565;28;20427;-71